sensor_id;sensor_type;location;lat;lon;timestamp;pressure;altitude;pressure_sealevel;temperature;humidity
21545;BME280;10933;50.754;11.508;2023-11-21T00:02:00;99054.06;;;7.91;100.00
21545;BME280;10933;50.754;11.508;2023-11-21T00:04:26;99063.56;;;7.99;100.00
21545;BME280;10933;50.754;11.508;2023-11-21T00:06:55;99059.75;;;7.78;100.00
21545;BME280;10933;50.754;11.508;2023-11-21T00:09:21;99060.56;;;7.95;100.00
21545;BME280;10933;50.754;11.508;2023-11-21T00:11:47;99067.56;;;7.63;100.00
21545;BME280;10933;50.754;11.508;2023-11-21T00:14:14;99061.09;;;7.30;100.00
21545;BME280;10933;50.754;11.508;2023-11-21T00:16:41;99054.84;;;7.25;100.00
21545;BME280;10933;50.754;11.508;2023-11-21T00:19:07;99063.41;;;7.38;100.00
21545;BME280;10933;50.754;11.508;2023-11-21T00:21:33;99051.00;;;6.92;100.00
21545;BME280;10933;50.754;11.508;2023-11-21T00:24:03;99058.91;;;6.70;100.00
21545;BME280;10933;50.754;11.508;2023-11-21T00:26:30;99049.63;;;6.61;100.00
21545;BME280;10933;50.754;11.508;2023-11-21T00:29:02;99038.78;;;6.56;100.00
21545;BME280;10933;50.754;11.508;2023-11-21T00:31:28;99020.84;;;6.57;100.00
21545;BME280;10933;50.754;11.508;2023-11-21T00:33:55;99012.50;;;6.70;100.00
21545;BME280;10933;50.754;11.508;2023-11-21T00:36:21;98993.28;;;6.73;100.00
21545;BME280;10933;50.754;11.508;2023-11-21T00:38:47;98990.69;;;6.78;100.00
21545;BME280;10933;50.754;11.508;2023-11-21T00:41:14;98988.28;;;6.93;100.00
21545;BME280;10933;50.754;11.508;2023-11-21T00:43:40;98983.50;;;6.95;100.00
21545;BME280;10933;50.754;11.508;2023-11-21T00:46:07;98987.34;;;7.16;100.00
21545;BME280;10933;50.754;11.508;2023-11-21T00:48:33;98991.59;;;7.62;100.00
21545;BME280;10933;50.754;11.508;2023-11-21T00:51:00;98994.00;;;7.81;100.00
21545;BME280;10933;50.754;11.508;2023-11-21T00:53:26;99004.94;;;7.57;100.00
21545;BME280;10933;50.754;11.508;2023-11-21T00:55:52;99014.00;;;7.23;100.00
21545;BME280;10933;50.754;11.508;2023-11-21T00:58:24;99015.00;;;7.17;100.00
21545;BME280;10933;50.754;11.508;2023-11-21T01:00:50;99022.97;;;7.45;100.00
21545;BME280;10933;50.754;11.508;2023-11-21T01:03:17;99023.38;;;7.71;100.00
21545;BME280;10933;50.754;11.508;2023-11-21T01:05:43;99026.94;;;7.93;100.00
21545;BME280;10933;50.754;11.508;2023-11-21T01:08:09;99027.53;;;7.45;100.00
21545;BME280;10933;50.754;11.508;2023-11-21T01:10:36;99031.78;;;7.57;100.00
21545;BME280;10933;50.754;11.508;2023-11-21T01:13:02;99023.41;;;7.37;100.00
21545;BME280;10933;50.754;11.508;2023-11-21T01:15:31;99028.78;;;7.37;100.00
21545;BME280;10933;50.754;11.508;2023-11-21T01:17:57;99031.56;;;7.14;100.00
21545;BME280;10933;50.754;11.508;2023-11-21T01:20:24;99028.25;;;6.95;100.00
21545;BME280;10933;50.754;11.508;2023-11-21T01:22:50;99026.44;;;6.84;100.00
21545;BME280;10933;50.754;11.508;2023-11-21T01:25:16;99016.94;;;6.76;100.00
21545;BME280;10933;50.754;11.508;2023-11-21T01:27:43;99006.66;;;6.73;100.00
21545;BME280;10933;50.754;11.508;2023-11-21T01:30:09;98991.34;;;6.85;100.00
21545;BME280;10933;50.754;11.508;2023-11-21T01:32:41;98993.91;;;7.08;100.00
21545;BME280;10933;50.754;11.508;2023-11-21T01:35:07;98993.88;;;7.37;100.00
21545;BME280;10933;50.754;11.508;2023-11-21T01:37:36;98998.59;;;7.63;100.00
21545;BME280;10933;50.754;11.508;2023-11-21T01:40:03;98999.31;;;7.42;100.00
21545;BME280;10933;50.754;11.508;2023-11-21T01:42:32;99010.47;;;7.67;100.00
21545;BME280;10933;50.754;11.508;2023-11-21T01:44:59;99017.78;;;7.89;100.00
21545;BME280;10933;50.754;11.508;2023-11-21T01:47:25;99031.47;;;8.09;100.00
21545;BME280;10933;50.754;11.508;2023-11-21T01:49:52;99031.88;;;8.18;100.00
21545;BME280;10933;50.754;11.508;2023-11-21T01:52:19;99037.63;;;7.88;100.00
21545;BME280;10933;50.754;11.508;2023-11-21T01:54:45;99047.06;;;7.74;100.00
21545;BME280;10933;50.754;11.508;2023-11-21T01:57:11;99050.72;;;7.67;100.00
21545;BME280;10933;50.754;11.508;2023-11-21T01:59:39;99049.09;;;7.83;100.00
21545;BME280;10933;50.754;11.508;2023-11-21T02:02:08;99047.56;;;7.71;100.00
21545;BME280;10933;50.754;11.508;2023-11-21T02:04:36;99048.59;;;8.03;100.00
21545;BME280;10933;50.754;11.508;2023-11-21T02:07:03;99052.47;;;8.12;100.00
21545;BME280;10933;50.754;11.508;2023-11-21T02:09:33;99059.56;;;8.18;100.00
21545;BME280;10933;50.754;11.508;2023-11-21T02:12:00;99064.94;;;8.18;100.00
21545;BME280;10933;50.754;11.508;2023-11-21T02:14:27;99074.78;;;8.13;100.00
21545;BME280;10933;50.754;11.508;2023-11-21T02:16:54;99081.94;;;8.07;100.00
21545;BME280;10933;50.754;11.508;2023-11-21T02:19:22;99080.88;;;8.08;100.00
21545;BME280;10933;50.754;11.508;2023-11-21T02:21:52;99076.84;;;8.06;100.00
21545;BME280;10933;50.754;11.508;2023-11-21T02:24:22;99084.47;;;8.14;100.00
21545;BME280;10933;50.754;11.508;2023-11-21T02:26:49;99089.34;;;8.00;100.00
21545;BME280;10933;50.754;11.508;2023-11-21T02:29:19;99081.94;;;8.07;100.00
21545;BME280;10933;50.754;11.508;2023-11-21T02:31:49;99084.28;;;8.20;100.00
21545;BME280;10933;50.754;11.508;2023-11-21T02:34:16;99090.06;;;8.12;100.00
21545;BME280;10933;50.754;11.508;2023-11-21T02:36:45;99099.19;;;8.11;100.00
21545;BME280;10933;50.754;11.508;2023-11-21T02:39:13;99102.69;;;8.29;100.00
21545;BME280;10933;50.754;11.508;2023-11-21T02:41:40;99105.28;;;8.23;100.00
21545;BME280;10933;50.754;11.508;2023-11-21T02:44:09;99108.41;;;8.15;100.00
21545;BME280;10933;50.754;11.508;2023-11-21T02:46:36;99096.78;;;7.93;100.00
21545;BME280;10933;50.754;11.508;2023-11-21T02:49:06;99094.66;;;7.95;100.00
21545;BME280;10933;50.754;11.508;2023-11-21T02:51:33;99098.09;;;7.90;100.00
21545;BME280;10933;50.754;11.508;2023-11-21T02:53:59;99100.34;;;7.65;100.00
21545;BME280;10933;50.754;11.508;2023-11-21T02:56:28;99097.91;;;7.97;100.00
21545;BME280;10933;50.754;11.508;2023-11-21T02:58:58;99088.38;;;8.06;100.00
21545;BME280;10933;50.754;11.508;2023-11-21T03:01:25;99094.31;;;8.08;100.00
21545;BME280;10933;50.754;11.508;2023-11-21T03:03:52;99094.66;;;7.95;100.00
21545;BME280;10933;50.754;11.508;2023-11-21T03:06:19;99100.94;;;8.01;100.00
21545;BME280;10933;50.754;11.508;2023-11-21T03:08:46;99101.09;;;7.77;100.00
21545;BME280;10933;50.754;11.508;2023-11-21T03:11:12;99098.34;;;7.89;100.00
21545;BME280;10933;50.754;11.508;2023-11-21T03:13:40;99102.13;;;8.10;100.00
21545;BME280;10933;50.754;11.508;2023-11-21T03:16:10;99103.50;;;8.12;100.00
21545;BME280;10933;50.754;11.508;2023-11-21T03:18:40;99108.88;;;8.12;100.00
21545;BME280;10933;50.754;11.508;2023-11-21T03:21:06;99114.13;;;8.02;100.00
21545;BME280;10933;50.754;11.508;2023-11-21T03:23:36;99117.03;;;7.84;100.00
21545;BME280;10933;50.754;11.508;2023-11-21T03:26:03;99103.59;;;7.50;100.00
21545;BME280;10933;50.754;11.508;2023-11-21T03:28:29;99102.66;;;7.45;100.00
21545;BME280;10933;50.754;11.508;2023-11-21T03:30:56;99105.31;;;7.73;100.00
21545;BME280;10933;50.754;11.508;2023-11-21T03:33:22;99105.16;;;7.80;100.00
21545;BME280;10933;50.754;11.508;2023-11-21T03:35:49;99105.63;;;8.10;100.00
21545;BME280;10933;50.754;11.508;2023-11-21T03:38:15;99109.13;;;8.27;100.00
21545;BME280;10933;50.754;11.508;2023-11-21T03:40:42;99108.25;;;8.05;100.00
21545;BME280;10933;50.754;11.508;2023-11-21T03:43:08;99116.69;;;8.31;100.00
21545;BME280;10933;50.754;11.508;2023-11-21T03:45:34;99109.84;;;8.23;100.00
21545;BME280;10933;50.754;11.508;2023-11-21T03:48:01;99117.13;;;8.06;100.00
21545;BME280;10933;50.754;11.508;2023-11-21T03:50:29;99116.84;;;7.74;100.00
21545;BME280;10933;50.754;11.508;2023-11-21T03:52:55;99110.28;;;7.64;100.00
21545;BME280;10933;50.754;11.508;2023-11-21T03:55:21;99114.03;;;7.80;100.00
21545;BME280;10933;50.754;11.508;2023-11-21T03:57:49;99121.75;;;7.77;100.00
21545;BME280;10933;50.754;11.508;2023-11-21T04:00:15;99117.53;;;7.81;100.00
21545;BME280;10933;50.754;11.508;2023-11-21T04:02:42;99124.06;;;8.02;100.00
21545;BME280;10933;50.754;11.508;2023-11-21T04:05:08;99123.53;;;8.21;100.00
21545;BME280;10933;50.754;11.508;2023-11-21T04:07:35;99130.69;;;8.33;100.00
21545;BME280;10933;50.754;11.508;2023-11-21T04:10:03;99125.00;;;8.29;100.00
21545;BME280;10933;50.754;11.508;2023-11-21T04:12:29;99133.38;;;8.33;100.00
21545;BME280;10933;50.754;11.508;2023-11-21T04:14:55;99141.38;;;8.27;100.00
21545;BME280;10933;50.754;11.508;2023-11-21T04:17:21;99135.50;;;8.31;100.00
21545;BME280;10933;50.754;11.508;2023-11-21T04:19:47;99144.72;;;8.35;100.00
21545;BME280;10933;50.754;11.508;2023-11-21T04:22:14;99148.22;;;8.35;100.00
21545;BME280;10933;50.754;11.508;2023-11-21T04:24:41;99157.41;;;8.22;100.00
21545;BME280;10933;50.754;11.508;2023-11-21T04:27:07;99159.13;;;8.29;100.00
21545;BME280;10933;50.754;11.508;2023-11-21T04:29:34;99164.91;;;8.20;100.00
21545;BME280;10933;50.754;11.508;2023-11-21T04:32:01;99181.28;;;8.19;100.00
21545;BME280;10933;50.754;11.508;2023-11-21T04:34:28;99178.41;;;8.25;100.00
21545;BME280;10933;50.754;11.508;2023-11-21T04:36:57;99185.59;;;8.03;100.00
21545;BME280;10933;50.754;11.508;2023-11-21T04:39:23;99186.16;;;8.05;100.00
21545;BME280;10933;50.754;11.508;2023-11-21T04:41:50;99189.47;;;7.79;100.00
21545;BME280;10933;50.754;11.508;2023-11-21T04:44:16;99184.09;;;7.95;100.00
21545;BME280;10933;50.754;11.508;2023-11-21T04:46:43;99187.34;;;7.97;100.00
21545;BME280;10933;50.754;11.508;2023-11-21T04:49:09;99193.63;;;8.03;100.00
21545;BME280;10933;50.754;11.508;2023-11-21T04:51:36;99188.22;;;7.86;100.00
21545;BME280;10933;50.754;11.508;2023-11-21T04:54:03;99187.16;;;7.71;100.00
21545;BME280;10933;50.754;11.508;2023-11-21T04:56:29;99180.97;;;7.13;100.00
21545;BME280;10933;50.754;11.508;2023-11-21T04:58:55;99183.56;;;6.96;100.00
21545;BME280;10933;50.754;11.508;2023-11-21T05:01:21;99177.97;;;7.38;100.00
21545;BME280;10933;50.754;11.508;2023-11-21T05:03:47;99180.97;;;7.42;100.00
21545;BME280;10933;50.754;11.508;2023-11-21T05:06:15;99184.59;;;7.35;100.00
21545;BME280;10933;50.754;11.508;2023-11-21T05:08:41;99180.81;;;7.20;100.00
21545;BME280;10933;50.754;11.508;2023-11-21T05:11:08;99185.09;;;6.92;100.00
21545;BME280;10933;50.754;11.508;2023-11-21T05:13:36;99189.75;;;6.85;100.00
21545;BME280;10933;50.754;11.508;2023-11-21T05:16:04;99190.47;;;6.57;100.00
21545;BME280;10933;50.754;11.508;2023-11-21T05:18:31;99199.81;;;6.55;100.00
21545;BME280;10933;50.754;11.508;2023-11-21T05:20:57;99196.44;;;6.36;100.00
21545;BME280;10933;50.754;11.508;2023-11-21T05:23:24;99194.56;;;6.25;100.00
21545;BME280;10933;50.754;11.508;2023-11-21T05:25:50;99195.59;;;6.12;100.00
21545;BME280;10933;50.754;11.508;2023-11-21T05:28:17;99191.94;;;5.95;100.00
21545;BME280;10933;50.754;11.508;2023-11-21T05:30:43;99200.50;;;5.85;100.00
21545;BME280;10933;50.754;11.508;2023-11-21T05:33:09;99196.50;;;5.76;100.00
21545;BME280;10933;50.754;11.508;2023-11-21T05:35:36;99199.97;;;5.65;100.00
21545;BME280;10933;50.754;11.508;2023-11-21T05:38:02;99213.75;;;5.50;100.00
21545;BME280;10933;50.754;11.508;2023-11-21T05:40:28;99212.19;;;5.42;100.00
21545;BME280;10933;50.754;11.508;2023-11-21T05:42:56;99205.38;;;5.28;100.00
21545;BME280;10933;50.754;11.508;2023-11-21T05:45:22;99202.94;;;5.26;100.00
21545;BME280;10933;50.754;11.508;2023-11-21T05:47:48;99209.16;;;5.20;100.00
21545;BME280;10933;50.754;11.508;2023-11-21T05:50:16;99210.91;;;5.15;100.00
21545;BME280;10933;50.754;11.508;2023-11-21T05:52:43;99205.25;;;5.05;100.00
21545;BME280;10933;50.754;11.508;2023-11-21T05:55:10;99209.41;;;5.00;100.00
21545;BME280;10933;50.754;11.508;2023-11-21T05:57:38;99211.56;;;4.92;100.00
21545;BME280;10933;50.754;11.508;2023-11-21T06:00:06;99210.56;;;4.68;100.00
21545;BME280;10933;50.754;11.508;2023-11-21T06:03:02;99204.59;;;4.72;100.00
21545;BME280;10933;50.754;11.508;2023-11-21T06:05:29;99205.63;;;4.71;100.00
21545;BME280;10933;50.754;11.508;2023-11-21T06:07:58;99193.13;;;4.47;100.00
21545;BME280;10933;50.754;11.508;2023-11-21T06:10:27;99181.84;;;4.45;100.00
21545;BME280;10933;50.754;11.508;2023-11-21T06:12:54;99170.78;;;4.17;100.00
21545;BME280;10933;50.754;11.508;2023-11-21T06:15:20;99162.25;;;4.33;100.00
21545;BME280;10933;50.754;11.508;2023-11-21T06:17:48;99140.13;;;4.44;100.00
21545;BME280;10933;50.754;11.508;2023-11-21T06:20:18;99128.34;;;4.52;100.00
21545;BME280;10933;50.754;11.508;2023-11-21T06:22:47;99130.16;;;4.58;100.00
21545;BME280;10933;50.754;11.508;2023-11-21T06:25:14;99132.06;;;4.51;100.00
21545;BME280;10933;50.754;11.508;2023-11-21T06:27:42;99138.50;;;4.43;100.00
21545;BME280;10933;50.754;11.508;2023-11-21T06:30:09;99134.47;;;4.16;100.00
21545;BME280;10933;50.754;11.508;2023-11-21T06:32:36;99131.63;;;4.10;100.00
21545;BME280;10933;50.754;11.508;2023-11-21T06:35:07;99130.97;;;4.15;100.00
21545;BME280;10933;50.754;11.508;2023-11-21T06:37:34;99147.19;;;4.38;100.00
21545;BME280;10933;50.754;11.508;2023-11-21T06:40:01;99137.53;;;4.37;100.00
21545;BME280;10933;50.754;11.508;2023-11-21T06:42:27;99139.41;;;4.37;100.00
21545;BME280;10933;50.754;11.508;2023-11-21T06:44:55;99138.53;;;4.18;100.00
21545;BME280;10933;50.754;11.508;2023-11-21T06:47:25;99147.06;;;4.08;100.00
21545;BME280;10933;50.754;11.508;2023-11-21T06:49:51;99153.25;;;4.02;100.00
21545;BME280;10933;50.754;11.508;2023-11-21T06:52:18;99162.25;;;4.08;100.00
21545;BME280;10933;50.754;11.508;2023-11-21T06:54:45;99160.19;;;4.10;100.00
21545;BME280;10933;50.754;11.508;2023-11-21T06:57:13;99167.75;;;4.13;100.00
21545;BME280;10933;50.754;11.508;2023-11-21T06:59:39;99170.78;;;4.17;100.00
21545;BME280;10933;50.754;11.508;2023-11-21T07:02:05;99171.13;;;4.27;100.00
21545;BME280;10933;50.754;11.508;2023-11-21T07:04:33;99181.13;;;4.31;100.00
21545;BME280;10933;50.754;11.508;2023-11-21T07:06:59;99184.03;;;4.30;100.00
21545;BME280;10933;50.754;11.508;2023-11-21T07:09:26;99191.31;;;4.41;100.00
21545;BME280;10933;50.754;11.508;2023-11-21T07:11:55;99203.72;;;4.54;100.00
21545;BME280;10933;50.754;11.508;2023-11-21T07:14:22;99203.09;;;4.77;100.00
21545;BME280;10933;50.754;11.508;2023-11-21T07:16:48;99226.72;;;4.98;100.00
21545;BME280;10933;50.754;11.508;2023-11-21T07:19:14;99226.41;;;5.06;100.00
21545;BME280;10933;50.754;11.508;2023-11-21T07:21:41;99227.47;;;5.23;100.00
21545;BME280;10933;50.754;11.508;2023-11-21T07:24:08;99232.72;;;5.30;100.00
21545;BME280;10933;50.754;11.508;2023-11-21T07:26:35;99233.94;;;5.46;100.00
21545;BME280;10933;50.754;11.508;2023-11-21T07:29:02;99243.13;;;5.68;100.00
21545;BME280;10933;50.754;11.508;2023-11-21T07:31:29;99244.88;;;5.93;100.00
21545;BME280;10933;50.754;11.508;2023-11-21T07:33:55;99246.34;;;6.18;100.00
21545;BME280;10933;50.754;11.508;2023-11-21T07:36:25;99248.25;;;6.41;100.00
21545;BME280;10933;50.754;11.508;2023-11-21T07:38:52;99258.03;;;6.47;100.00
21545;BME280;10933;50.754;11.508;2023-11-21T07:41:18;99264.13;;;6.55;100.00
21545;BME280;10933;50.754;11.508;2023-11-21T07:43:45;99265.63;;;6.97;100.00
21545;BME280;10933;50.754;11.508;2023-11-21T07:46:12;99270.41;;;7.19;100.00
21545;BME280;10933;50.754;11.508;2023-11-21T07:48:39;99282.41;;;7.28;100.00
21545;BME280;10933;50.754;11.508;2023-11-21T07:51:06;99291.59;;;7.32;100.00
21545;BME280;10933;50.754;11.508;2023-11-21T07:53:35;99298.84;;;7.08;100.00
21545;BME280;10933;50.754;11.508;2023-11-21T07:56:10;99310.41;;;7.08;100.00
21545;BME280;10933;50.754;11.508;2023-11-21T07:58:36;99311.91;;;6.81;100.00
21545;BME280;10933;50.754;11.508;2023-11-21T08:01:03;99323.94;;;6.78;100.00
21545;BME280;10933;50.754;11.508;2023-11-21T08:03:30;99323.22;;;6.95;100.00
21545;BME280;10933;50.754;11.508;2023-11-21T08:06:00;99326.06;;;6.46;100.00
21545;BME280;10933;50.754;11.508;2023-11-21T08:08:26;99338.78;;;6.39;100.00
21545;BME280;10933;50.754;11.508;2023-11-21T08:10:53;99332.28;;;6.17;100.00
21545;BME280;10933;50.754;11.508;2023-11-21T08:13:23;99330.38;;;6.47;100.00
21545;BME280;10933;50.754;11.508;2023-11-21T08:15:50;99338.50;;;6.94;100.00
21545;BME280;10933;50.754;11.508;2023-11-21T08:18:16;99346.91;;;6.86;100.00
21545;BME280;10933;50.754;11.508;2023-11-21T08:20:44;99343.19;;;6.87;100.00
21545;BME280;10933;50.754;11.508;2023-11-21T08:23:16;99350.75;;;6.90;100.00
21545;BME280;10933;50.754;11.508;2023-11-21T08:25:46;99353.56;;;7.30;100.00
21545;BME280;10933;50.754;11.508;2023-11-21T08:28:12;99360.44;;;7.50;100.00
21545;BME280;10933;50.754;11.508;2023-11-21T08:30:40;99361.03;;;7.92;100.00
21545;BME280;10933;50.754;11.508;2023-11-21T08:33:07;99387.75;;;7.98;100.00
21545;BME280;10933;50.754;11.508;2023-11-21T08:35:35;99403.94;;;8.15;100.00
21545;BME280;10933;50.754;11.508;2023-11-21T08:38:02;99413.97;;;7.68;100.00
21545;BME280;10933;50.754;11.508;2023-11-21T08:40:28;99422.34;;;7.83;100.00
21545;BME280;10933;50.754;11.508;2023-11-21T08:42:55;99435.28;;;7.98;100.00
21545;BME280;10933;50.754;11.508;2023-11-21T08:45:24;99438.50;;;8.23;100.00
21545;BME280;10933;50.754;11.508;2023-11-21T08:47:51;99440.19;;;8.01;100.00
21545;BME280;10933;50.754;11.508;2023-11-21T08:50:18;99439.19;;;8.31;100.00
21545;BME280;10933;50.754;11.508;2023-11-21T08:52:46;99438.59;;;8.40;100.00
21545;BME280;10933;50.754;11.508;2023-11-21T08:55:12;99446.94;;;8.15;100.00
21545;BME280;10933;50.754;11.508;2023-11-21T08:57:39;99438.34;;;7.90;100.00
21545;BME280;10933;50.754;11.508;2023-11-21T09:00:07;99445.03;;;7.76;100.00
21545;BME280;10933;50.754;11.508;2023-11-21T09:02:40;99454.09;;;7.86;100.00
21545;BME280;10933;50.754;11.508;2023-11-21T09:05:10;99455.31;;;8.31;100.00
21545;BME280;10933;50.754;11.508;2023-11-21T09:07:38;99447.41;;;8.64;100.00
21545;BME280;10933;50.754;11.508;2023-11-21T09:10:05;99450.41;;;8.68;100.00
21545;BME280;10933;50.754;11.508;2023-11-21T09:12:36;99461.16;;;8.68;100.00
21545;BME280;10933;50.754;11.508;2023-11-21T09:15:07;99459.19;;;8.63;100.00
21545;BME280;10933;50.754;11.508;2023-11-21T09:17:33;99460.34;;;8.67;100.00
21545;BME280;10933;50.754;11.508;2023-11-21T09:20:00;99467.81;;;8.37;100.00
21545;BME280;10933;50.754;11.508;2023-11-21T09:22:26;99481.69;;;8.34;100.00
21545;BME280;10933;50.754;11.508;2023-11-21T09:24:55;99482.75;;;8.44;100.00
21545;BME280;10933;50.754;11.508;2023-11-21T09:27:23;99485.88;;;8.53;100.00
21545;BME280;10933;50.754;11.508;2023-11-21T09:29:49;99480.41;;;9.22;100.00
21545;BME280;10933;50.754;11.508;2023-11-21T09:32:16;99490.59;;;9.03;100.00
21545;BME280;10933;50.754;11.508;2023-11-21T09:34:42;99480.16;;;9.23;100.00
21545;BME280;10933;50.754;11.508;2023-11-21T09:37:08;99485.31;;;8.79;100.00
21545;BME280;10933;50.754;11.508;2023-11-21T09:39:35;99482.94;;;9.28;100.00
21545;BME280;10933;50.754;11.508;2023-11-21T09:42:12;99494.75;;;9.10;100.00
21545;BME280;10933;50.754;11.508;2023-11-21T09:47:27;99495.19;;;8.62;100.00
21545;BME280;10933;50.754;11.508;2023-11-21T09:49:55;99493.16;;;8.98;100.00
21545;BME280;10933;50.754;11.508;2023-11-21T09:52:26;99491.84;;;8.83;100.00
21545;BME280;10933;50.754;11.508;2023-11-21T09:54:53;99500.97;;;8.82;100.00
21545;BME280;10933;50.754;11.508;2023-11-21T09:57:24;99500.00;;;8.89;100.00
21545;BME280;10933;50.754;11.508;2023-11-21T09:59:52;99506.38;;;9.44;100.00
21545;BME280;10933;50.754;11.508;2023-11-21T10:02:26;99507.75;;;9.30;100.00
21545;BME280;10933;50.754;11.508;2023-11-21T10:04:55;99516.69;;;9.02;100.00
21545;BME280;10933;50.754;11.508;2023-11-21T10:07:23;99525.47;;;9.14;100.00
21545;BME280;10933;50.754;11.508;2023-11-21T10:09:51;99525.94;;;9.57;100.00
21545;BME280;10933;50.754;11.508;2023-11-21T10:12:19;99527.50;;;9.69;100.00
21545;BME280;10933;50.754;11.508;2023-11-21T10:14:49;99526.41;;;9.87;100.00
21545;BME280;10933;50.754;11.508;2023-11-21T10:17:18;99534.66;;;9.97;100.00
21545;BME280;10933;50.754;11.508;2023-11-21T10:19:47;99529.91;;;9.37;100.00
21545;BME280;10933;50.754;11.508;2023-11-21T10:22:15;99531.09;;;9.58;100.00
21545;BME280;10933;50.754;11.508;2023-11-21T10:24:42;99530.91;;;9.65;100.00
21545;BME280;10933;50.754;11.508;2023-11-21T10:27:09;99535.72;;;9.63;100.00
21545;BME280;10933;50.754;11.508;2023-11-21T10:29:36;99542.81;;;9.86;100.00
21545;BME280;10933;50.754;11.508;2023-11-21T10:32:05;99551.31;;;9.94;100.00
21545;BME280;10933;50.754;11.508;2023-11-21T10:34:32;99545.19;;;9.65;100.00
21545;BME280;10933;50.754;11.508;2023-11-21T10:36:59;99555.16;;;9.98;100.00
21545;BME280;10933;50.754;11.508;2023-11-21T10:39:36;99556.88;;;9.54;100.00
21545;BME280;10933;50.754;11.508;2023-11-21T10:42:02;99559.50;;;9.66;100.00
21545;BME280;10933;50.754;11.508;2023-11-21T10:44:29;99558.66;;;9.99;100.00
21545;BME280;10933;50.754;11.508;2023-11-21T10:46:55;99556.38;;;10.08;100.00
21545;BME280;10933;50.754;11.508;2023-11-21T10:49:27;99561.44;;;9.87;100.00
21545;BME280;10933;50.754;11.508;2023-11-21T10:51:57;99550.25;;;9.28;100.00
21545;BME280;10933;50.754;11.508;2023-11-21T10:54:24;99556.47;;;9.46;100.00
21545;BME280;10933;50.754;11.508;2023-11-21T10:56:59;99558.47;;;9.38;100.00
21545;BME280;10933;50.754;11.508;2023-11-21T10:59:29;99551.56;;;9.14;100.00
21545;BME280;10933;50.754;11.508;2023-11-21T11:01:58;99551.34;;;8.87;100.00
21545;BME280;10933;50.754;11.508;2023-11-21T11:04:27;99544.22;;;8.93;100.00
21545;BME280;10933;50.754;11.508;2023-11-21T11:07:02;99528.84;;;9.38;100.00
21545;BME280;10933;50.754;11.508;2023-11-21T11:09:31;99529.59;;;9.34;100.00
21545;BME280;10933;50.754;11.508;2023-11-21T11:12:02;99525.69;;;9.75;100.00
21545;BME280;10933;50.754;11.508;2023-11-21T11:14:29;99528.59;;;9.23;100.00
21545;BME280;10933;50.754;11.508;2023-11-21T11:16:55;99524.97;;;9.29;100.00
21545;BME280;10933;50.754;11.508;2023-11-21T11:19:22;99518.34;;;9.70;100.00
21545;BME280;10933;50.754;11.508;2023-11-21T11:33:02;99514.91;;;9.25;100.00
21545;BME280;10933;50.754;11.508;2023-11-21T11:36:21;99517.75;;;9.85;100.00
21545;BME280;10933;50.754;11.508;2023-11-21T11:38:48;99519.19;;;10.10;100.00
21545;BME280;10933;50.754;11.508;2023-11-21T11:41:25;99522.09;;;9.86;100.00
21545;BME280;10933;50.754;11.508;2023-11-21T11:43:53;99532.06;;;9.69;100.00
21545;BME280;10933;50.754;11.508;2023-11-21T11:46:19;99522.03;;;9.81;100.00
21545;BME280;10933;50.754;11.508;2023-11-21T11:48:48;99523.81;;;9.76;100.00
21545;BME280;10933;50.754;11.508;2023-11-21T11:51:29;99530.53;;;10.12;100.00
21545;BME280;10933;50.754;11.508;2023-11-21T11:53:57;99543.44;;;10.26;100.00
21545;BME280;10933;50.754;11.508;2023-11-21T11:58:56;99546.03;;;9.83;100.00
21545;BME280;10933;50.754;11.508;2023-11-21T12:01:25;99544.78;;;9.90;100.00
21545;BME280;10933;50.754;11.508;2023-11-21T12:06:37;99565.34;;;10.30;100.00
21545;BME280;10933;50.754;11.508;2023-11-21T12:09:03;99565.81;;;10.44;100.00
21545;BME280;10933;50.754;11.508;2023-11-21T12:11:33;99564.53;;;10.29;100.00
21545;BME280;10933;50.754;11.508;2023-11-21T12:14:02;99559.75;;;10.37;100.00
21545;BME280;10933;50.754;11.508;2023-11-21T12:16:33;99568.34;;;10.34;100.00
21545;BME280;10933;50.754;11.508;2023-11-21T12:18:59;99567.41;;;10.67;100.00
21545;BME280;10933;50.754;11.508;2023-11-21T12:21:25;99582.00;;;10.27;100.00
21545;BME280;10933;50.754;11.508;2023-11-21T12:23:52;99589.09;;;9.99;100.00
21545;BME280;10933;50.754;11.508;2023-11-21T12:26:18;99595.78;;;10.14;100.00
21545;BME280;10933;50.754;11.508;2023-11-21T12:28:51;99592.47;;;9.90;100.00
21545;BME280;10933;50.754;11.508;2023-11-21T12:31:18;99593.09;;;9.47;100.00
21545;BME280;10933;50.754;11.508;2023-11-21T12:33:44;99587.94;;;9.45;100.00
21545;BME280;10933;50.754;11.508;2023-11-21T12:36:11;99594.09;;;9.74;100.00
21545;BME280;10933;50.754;11.508;2023-11-21T12:38:37;99588.22;;;9.77;100.00
21545;BME280;10933;50.754;11.508;2023-11-21T12:41:04;99590.84;;;9.72;100.00
21545;BME280;10933;50.754;11.508;2023-11-21T12:43:32;99583.97;;;9.98;100.00
21545;BME280;10933;50.754;11.508;2023-11-21T12:46:08;99582.91;;;9.99;100.00
21545;BME280;10933;50.754;11.508;2023-11-21T12:48:41;99584.63;;;9.88;100.00
21545;BME280;10933;50.754;11.508;2023-11-21T12:51:12;99585.28;;;9.95;100.00
21545;BME280;10933;50.754;11.508;2023-11-21T12:53:40;99598.03;;;9.66;100.00
21545;BME280;10933;50.754;11.508;2023-11-21T12:56:09;99602.97;;;9.41;100.00
21545;BME280;10933;50.754;11.508;2023-11-21T12:58:39;99594.72;;;9.48;100.00
21545;BME280;10933;50.754;11.508;2023-11-21T13:01:07;99591.25;;;9.19;100.00
21545;BME280;10933;50.754;11.508;2023-11-21T13:03:38;99592.38;;;8.94;100.00
21545;BME280;10933;50.754;11.508;2023-11-21T13:06:06;99583.81;;;8.57;100.00
21545;BME280;10933;50.754;11.508;2023-11-21T13:08:33;99585.25;;;8.48;100.00
21545;BME280;10933;50.754;11.508;2023-11-21T13:11:00;99561.88;;;8.37;100.00
21545;BME280;10933;50.754;11.508;2023-11-21T13:13:29;99556.03;;;8.16;100.00